createdAt,value
2023-04-10T00:01:06.071Z,35
2023-04-10T00:06:15.841Z,35
2023-04-10T00:11:25.584Z,35
2023-04-10T00:16:35.501Z,36
2023-04-10T00:21:43.846Z,36
2023-04-10T00:26:52.311Z,36
2023-04-10T00:32:03.517Z,36
2023-04-10T00:37:12.480Z,36
2023-04-10T00:42:22.221Z,36
2023-04-10T00:47:32.077Z,36
2023-04-10T00:52:41.126Z,36
2023-04-10T00:57:50.232Z,36
2023-04-10T01:02:59.835Z,36
2023-04-10T01:08:11.739Z,36
2023-04-10T01:13:21.437Z,36
2023-04-10T01:18:31.191Z,36
2023-04-10T01:23:41.620Z,36
2023-04-10T01:28:51.361Z,36
2023-04-10T01:33:59.917Z,36
2023-04-10T01:39:08.306Z,36
2023-04-10T01:44:17.435Z,36
2023-04-10T01:49:27.231Z,36
2023-04-10T01:54:36.952Z,36
2023-04-10T01:59:46.084Z,36
2023-04-10T02:04:54.660Z,36
2023-04-10T02:10:03.027Z,37
2023-04-10T02:15:14.083Z,37
2023-04-10T02:20:23.208Z,37
2023-04-10T02:25:31.692Z,37
2023-04-10T02:30:40.170Z,37
2023-04-10T02:35:49.330Z,37
2023-04-10T02:40:58.428Z,37
2023-04-10T02:46:07.508Z,37
2023-04-10T02:51:17.278Z,37
2023-04-10T02:56:27.028Z,37
2023-04-10T03:01:36.365Z,37
2023-04-10T03:06:45.927Z,37
2023-04-10T03:20:56.346Z,37
2023-04-10T03:37:25.484Z,37
2023-04-10T03:46:26.209Z,37
2023-04-10T04:01:36.911Z,37
2023-04-10T04:08:25.779Z,37
2023-04-10T04:14:25.438Z,37
2023-04-10T04:19:35.873Z,37
2023-04-10T04:24:45.609Z,37
2023-04-10T04:29:54.071Z,38
2023-04-10T04:35:04.485Z,38
2023-04-10T04:40:12.956Z,38
2023-04-10T04:45:22.135Z,38
2023-04-10T04:50:31.859Z,38
2023-04-10T04:55:41.584Z,38
2023-04-10T05:00:51.472Z,38
2023-04-10T05:06:01.120Z,38
2023-04-10T05:11:10.212Z,38
2023-04-10T05:16:20.270Z,39
2023-04-10T05:21:29.108Z,39
2023-04-10T05:26:38.859Z,39
2023-04-10T05:31:48.004Z,39
2023-04-10T05:36:59.508Z,39
2023-04-10T05:42:06.926Z,39
2023-04-10T05:47:16.664Z,39
2023-04-10T05:52:25.746Z,39
2023-04-10T05:57:35.544Z,39
2023-04-10T06:02:45.817Z,39
2023-04-10T06:07:58.635Z,38
2023-04-10T06:13:03.533Z,38
2023-04-10T06:18:12.637Z,38
2023-04-10T06:23:21.762Z,38
2023-04-10T06:28:32.146Z,38
2023-04-10T06:33:42.572Z,38
2023-04-10T06:38:51.513Z,38
2023-04-10T06:44:03.881Z,37
2023-04-10T06:49:10.566Z,37
2023-04-10T06:54:19.705Z,37
2023-04-10T06:59:29.443Z,37
2023-04-10T07:04:39.214Z,36
2023-04-10T07:09:48.965Z,36
2023-04-10T07:14:58.166Z,36
2023-04-10T07:20:07.241Z,35
2023-04-10T07:25:15.682Z,35
2023-04-10T07:30:24.797Z,35
2023-04-10T07:35:34.649Z,34
2023-04-10T07:40:43.693Z,34
2023-04-10T07:45:53.555Z,33
2023-04-10T07:51:03.206Z,33
2023-04-10T07:56:12.328Z,32
2023-04-10T08:01:22.736Z,32
2023-04-10T08:06:31.187Z,32
2023-04-10T08:11:40.319Z,31
2023-04-10T08:16:49.644Z,31
2023-04-10T08:21:59.198Z,31
2023-04-10T08:27:08.332Z,30
2023-04-10T08:32:17.439Z,30
2023-04-10T08:37:28.465Z,30
2023-04-10T08:42:38.240Z,30
2023-04-10T08:47:48.126Z,30
2023-04-10T08:52:57.776Z,30
2023-04-10T08:58:08.158Z,29
2023-04-10T09:03:18.408Z,29
2023-04-10T09:08:26.381Z,29
2023-04-10T09:13:35.509Z,29
2023-04-10T09:18:44.643Z,28
2023-04-10T09:23:54.711Z,28
2023-04-10T09:29:02.903Z,28
2023-04-10T09:34:13.334Z,28
2023-04-10T09:39:22.434Z,28
2023-04-10T09:44:30.898Z,28
2023-04-10T09:49:40.747Z,27
2023-04-10T09:54:49.125Z,27
2023-04-10T09:59:57.630Z,27
2023-04-10T10:05:07.439Z,27
2023-04-10T10:10:16.506Z,27
2023-04-10T10:15:25.659Z,26
2023-04-10T10:20:37.030Z,26
2023-04-10T10:25:45.116Z,26
2023-04-10T10:30:55.535Z,26
2023-04-10T10:36:07.224Z,26
2023-04-10T10:41:16.940Z,25
2023-04-10T10:46:25.416Z,25
2023-04-10T10:51:35.191Z,25
2023-04-10T10:56:44.966Z,24
2023-04-10T11:01:54.497Z,24
2023-04-10T11:07:03.831Z,24
2023-04-10T11:12:13.648Z,24
2023-04-10T11:17:26.017Z,24
2023-04-10T11:22:35.678Z,24
2023-04-10T11:27:44.961Z,24
2023-04-10T11:32:55.356Z,24
2023-04-10T11:38:06.226Z,24
2023-04-10T11:43:15.995Z,23
2023-04-10T11:48:26.382Z,23
2023-04-10T11:53:34.867Z,23
2023-04-10T11:58:44.634Z,23
2023-04-10T12:03:54.837Z,23
2023-04-10T12:09:02.884Z,23
2023-04-10T12:14:13.261Z,22
2023-04-10T12:19:23.761Z,22
2023-04-10T12:24:34.093Z,22
2023-04-10T12:29:44.470Z,22
2023-04-10T12:34:54.883Z,22
2023-04-10T12:40:03.361Z,22
2023-04-10T12:45:13.128Z,22
2023-04-10T12:50:21.682Z,21
2023-04-10T12:55:30.090Z,21
2023-04-10T13:00:40.499Z,21
2023-04-10T13:05:49.607Z,21
2023-04-10T13:10:59.327Z,21
2023-04-10T13:16:08.715Z,21
2023-04-10T13:21:18.227Z,20
2023-04-10T13:26:27.995Z,20
2023-04-10T13:31:38.004Z,20
2023-04-10T13:36:47.638Z,20
2023-04-10T13:41:57.270Z,20
2023-04-10T13:47:07.450Z,20
2023-04-10T13:52:16.175Z,20
2023-04-10T13:57:25.934Z,20
2023-04-10T14:02:36.053Z,20
2023-04-10T14:07:44.817Z,20
2023-04-10T14:12:55.197Z,20
2023-04-10T14:18:05.043Z,20
2023-04-10T14:23:14.713Z,20
2023-04-10T14:28:23.845Z,20
2023-04-10T14:33:35.706Z,20
2023-04-10T14:38:44.699Z,20
2023-04-10T14:43:54.572Z,20
2023-04-10T14:49:04.767Z,20
2023-04-10T14:54:13.269Z,20
2023-04-10T14:59:23.364Z,20
2023-04-10T15:04:33.236Z,20
2023-04-10T15:09:42.561Z,20
2023-04-10T15:14:52.317Z,20
2023-04-10T15:20:02.725Z,20
2023-04-10T15:25:11.835Z,20
2023-04-10T15:30:21.624Z,21
2023-04-10T15:35:31.443Z,21
2023-04-10T15:40:41.770Z,21
2023-04-10T15:45:51.036Z,21
2023-04-10T15:51:00.641Z,21
2023-04-10T15:56:09.114Z,22
2023-04-10T16:01:17.731Z,22
2023-04-10T16:06:28.014Z,22
2023-04-10T16:11:37.757Z,22
2023-04-10T16:16:47.654Z,22
2023-04-10T16:21:56.629Z,22
2023-04-10T16:27:05.766Z,22
2023-04-10T16:32:14.871Z,22
2023-04-10T16:37:23.931Z,22
2023-04-10T16:42:33.126Z,22
2023-04-10T16:47:42.924Z,22
2023-04-10T16:52:52.679Z,22
2023-04-10T16:58:02.391Z,22
2023-04-10T17:03:11.671Z,22
2023-04-10T17:08:20.005Z,22
2023-04-10T17:13:29.760Z,22
2023-04-10T17:18:39.518Z,22
2023-04-10T17:23:48.635Z,23
2023-04-10T17:28:57.760Z,23
2023-04-10T17:34:08.154Z,23
2023-04-10T17:39:17.288Z,24
2023-04-10T17:44:25.741Z,24
2023-04-10T17:49:34.264Z,24
2023-04-10T17:54:44.013Z,25
2023-04-10T17:59:53.763Z,25
2023-04-10T18:05:04.159Z,26
2023-04-10T18:10:12.646Z,26
2023-04-10T18:15:21.741Z,27
2023-04-10T18:20:31.524Z,27
2023-04-10T18:25:41.268Z,27
2023-04-10T18:30:51.152Z,28
2023-04-10T18:36:00.881Z,28
2023-04-10T18:41:09.932Z,29
2023-04-10T18:46:19.807Z,29
2023-04-10T18:51:28.810Z,30
2023-04-10T18:56:38.637Z,30
2023-04-10T19:01:48.599Z,31
2023-04-10T19:06:56.808Z,31
2023-04-10T19:12:05.283Z,31
2023-04-10T19:17:14.393Z,32
2023-04-10T19:22:24.176Z,32
2023-04-10T19:27:35.837Z,32
2023-04-10T19:32:43.835Z,33
2023-04-10T19:37:52.782Z,33
2023-04-10T19:43:02.600Z,33
2023-04-10T19:48:12.324Z,34
2023-04-10T19:53:20.898Z,34
2023-04-10T19:58:56.145Z,35
2023-04-10T20:03:42.058Z,35
2023-04-10T20:08:52.666Z,35
2023-04-10T20:14:01.123Z,36
2023-04-10T20:19:10.224Z,37
2023-04-10T20:24:20.661Z,37
2023-04-10T20:29:29.742Z,38
2023-04-10T20:34:38.236Z,38
2023-04-10T20:39:47.386Z,39
2023-04-10T20:44:55.819Z,39
2023-04-10T20:50:05.586Z,39
2023-04-10T20:55:15.336Z,40
2023-04-10T21:00:24.464Z,40
2023-04-10T21:05:34.253Z,40
2023-04-10T21:10:44.196Z,40
2023-04-10T21:15:53.743Z,41
2023-04-10T21:21:02.231Z,41
2023-04-10T21:26:11.366Z,41
2023-04-10T21:31:20.672Z,41
2023-04-10T21:36:29.589Z,41
2023-04-10T21:41:38.728Z,42
2023-04-10T21:46:47.224Z,42
2023-04-10T21:51:55.674Z,42
2023-04-10T21:57:06.169Z,42
2023-04-10T22:02:15.345Z,42
2023-04-10T22:07:25.596Z,42
2023-04-10T22:12:35.353Z,42
2023-04-10T22:17:44.119Z,42
2023-04-10T22:22:52.341Z,43
2023-04-10T22:28:02.087Z,43
2023-04-10T22:33:10.740Z,43
2023-04-10T22:38:19.032Z,43
2023-04-10T22:43:28.145Z,43
2023-04-10T22:48:38.756Z,43
2023-04-10T22:53:48.300Z,43
2023-04-10T22:58:57.595Z,43
2023-04-10T23:04:06.619Z,43
2023-04-10T23:09:15.702Z,43
2023-04-10T23:14:24.813Z,43
2023-04-10T23:19:33.916Z,43
2023-04-10T23:24:42.407Z,43
2023-04-10T23:29:52.222Z,43
2023-04-10T23:35:02.585Z,44
2023-04-10T23:40:11.047Z,44
2023-04-10T23:45:20.806Z,44
2023-04-10T23:50:29.289Z,44
2023-04-10T23:55:39.688Z,44
